createdAt,value
2022-12-04T00:00:15.728Z,77.75
2022-12-04T00:02:47.715Z,78.19
2022-12-04T00:05:19.838Z,78.90
2022-12-04T00:07:51.886Z,78.65
2022-12-04T00:10:23.900Z,78.43
2022-12-04T00:12:55.907Z,78.51
2022-12-04T00:15:27.846Z,78.23
2022-12-04T00:17:59.777Z,77.80
2022-12-04T00:20:31.734Z,77.77
2022-12-04T00:23:03.816Z,77.87
2022-12-04T00:25:40.903Z,78.28
2022-12-04T00:28:13.347Z,77.70
2022-12-04T00:30:46.272Z,77.67
2022-12-04T00:33:18.188Z,77.48
2022-12-04T00:35:58.908Z,78.10
2022-12-04T00:38:31.073Z,79.21
2022-12-04T00:41:03.989Z,78.62
2022-12-04T00:43:36.002Z,78.05
2022-12-04T00:46:09.283Z,78.71
2022-12-04T00:48:42.402Z,78.11
2022-12-04T00:51:21.911Z,78.28
2022-12-04T00:53:54.713Z,78.22
2022-12-04T00:56:28.569Z,77.97
2022-12-04T00:59:01.791Z,77.86
2022-12-04T01:01:33.818Z,78.06
2022-12-04T01:04:06.060Z,78.54
2022-12-04T01:06:38.021Z,78.24
2022-12-04T01:09:09.950Z,78.58
2022-12-04T01:11:41.948Z,79.39
2022-12-04T01:14:13.913Z,79.04
2022-12-04T01:16:47.351Z,79.22
2022-12-04T01:19:19.492Z,78.90
2022-12-04T01:21:52.101Z,78.33
2022-12-04T01:24:24.031Z,78.90
2022-12-04T01:26:56.068Z,78.22
2022-12-04T01:29:28.126Z,78.05
2022-12-04T01:32:00.222Z,78.22
2022-12-04T01:34:32.329Z,78.77
2022-12-04T01:37:04.433Z,78.45
2022-12-04T01:39:37.078Z,78.81
2022-12-04T01:42:14.458Z,78.67
2022-12-04T01:45:45.238Z,78.30
2022-12-04T01:48:49.598Z,78.70
2022-12-04T01:51:31.117Z,78.38
2022-12-04T01:54:11.014Z,78.18
2022-12-04T01:56:51.653Z,78.34
2022-12-04T01:59:28.421Z,78.35
2022-12-04T02:02:09.463Z,79.11
2022-12-04T02:04:42.785Z,78.49
2022-12-04T02:07:14.869Z,78.80
2022-12-04T02:09:53.827Z,79.34
2022-12-04T02:12:34.917Z,79.65
2022-12-04T02:15:24.209Z,78.84
2022-12-04T02:18:28.475Z,78.38
2022-12-04T02:21:36.661Z,79.70
2022-12-04T02:24:36.664Z,79.79
2022-12-04T02:27:41.781Z,79.42
2022-12-04T02:30:14.813Z,79.40
2022-12-04T02:33:05.812Z,80.07
2022-12-04T02:35:47.316Z,80.19
2022-12-04T02:38:28.948Z,79.83
2022-12-04T02:41:03.136Z,80.04
2022-12-04T02:43:47.704Z,80.33
2022-12-04T02:46:39.933Z,80.15
2022-12-04T02:49:21.390Z,80.16
2022-12-04T02:51:55.383Z,80.19
2022-12-04T02:54:41.755Z,79.83
2022-12-04T02:57:20.692Z,79.98
2022-12-04T02:59:57.061Z,80.57
2022-12-04T03:02:49.446Z,79.98
2022-12-04T03:05:30.644Z,79.83
2022-12-04T03:08:08.698Z,79.98
2022-12-04T03:10:49.156Z,79.90
2022-12-04T03:14:00.163Z,79.39
2022-12-04T03:16:40.411Z,80.42
2022-12-04T03:19:37.937Z,79.98
2022-12-04T03:22:15.825Z,80.11
2022-12-04T03:24:55.873Z,80.61
2022-12-04T03:27:56.672Z,81.62
2022-12-04T03:30:38.116Z,81.02
2022-12-04T03:33:26.549Z,81.86
2022-12-04T03:36:16.980Z,81.94
2022-12-04T03:39:11.148Z,82.59
2022-12-04T03:41:56.926Z,82.89
2022-12-04T03:44:41.255Z,83.13
2022-12-04T03:47:28.802Z,83.13
2022-12-04T03:50:09.834Z,82.87
2022-12-04T03:53:17.727Z,83.06
2022-12-04T03:56:06.753Z,83.18
2022-12-04T03:58:44.565Z,83.32
2022-12-04T04:01:22.588Z,83.73
2022-12-04T04:03:58.006Z,83.75
2022-12-04T04:06:41.253Z,84.39
2022-12-04T04:09:23.005Z,84.26
2022-12-04T04:12:05.695Z,84.45
2022-12-04T04:14:59.485Z,85.08
2022-12-04T04:18:07.567Z,85.30
2022-12-04T04:21:03.660Z,86.06
2022-12-04T04:24:02.427Z,86.09
2022-12-04T04:26:39.452Z,86.00
2022-12-04T04:29:12.196Z,86.28
2022-12-04T04:32:25.287Z,86.30
2022-12-04T04:35:15.653Z,85.29
2022-12-04T04:38:09.089Z,86.09
2022-12-04T04:41:09.301Z,85.82
2022-12-04T04:44:03.628Z,85.45
2022-12-04T04:46:40.696Z,85.61
2022-12-04T04:49:14.899Z,85.84
2022-12-04T04:51:48.241Z,85.47
2022-12-04T04:54:21.385Z,85.40
2022-12-04T04:56:53.353Z,85.33
2022-12-04T04:59:25.413Z,84.69
2022-12-04T05:01:57.565Z,84.27
2022-12-04T05:04:29.657Z,85.13
2022-12-04T05:07:01.635Z,84.93
2022-12-04T05:09:38.240Z,84.77
2022-12-04T05:12:13.092Z,83.42
2022-12-04T05:14:47.018Z,83.71
2022-12-04T05:17:19.035Z,83.80
2022-12-04T05:19:54.845Z,84.17
2022-12-04T05:22:35.937Z,84.55
2022-12-04T05:25:08.531Z,84.06
2022-12-04T05:27:40.592Z,84.42
2022-12-04T05:30:13.264Z,84.04
2022-12-04T05:32:45.252Z,82.67
2022-12-04T05:35:17.442Z,83.84
2022-12-04T05:37:49.426Z,83.98
2022-12-04T05:40:21.364Z,84.00
2022-12-04T05:42:53.299Z,84.52
2022-12-04T05:45:25.219Z,84.40
2022-12-04T05:47:57.137Z,84.71
2022-12-04T05:50:29.070Z,84.45
2022-12-04T05:53:00.980Z,83.60
2022-12-04T05:55:32.958Z,83.57
2022-12-04T05:58:05.048Z,83.25
2022-12-04T06:00:37.090Z,83.86
2022-12-04T06:03:09.082Z,83.67
2022-12-04T06:05:41.097Z,83.83
2022-12-04T06:08:13.501Z,83.41
2022-12-04T06:10:45.572Z,83.64
2022-12-04T06:13:17.613Z,83.41
2022-12-04T06:15:49.533Z,83.40
2022-12-04T06:18:21.481Z,83.14
2022-12-04T06:20:53.459Z,83.02
2022-12-04T06:23:25.524Z,83.18
2022-12-04T06:26:02.170Z,82.87
2022-12-04T06:28:37.722Z,83.53
2022-12-04T06:31:13.864Z,83.80
2022-12-04T06:33:46.403Z,83.05
2022-12-04T06:36:21.226Z,82.85
2022-12-04T06:38:56.874Z,82.87
2022-12-04T06:41:29.482Z,83.18
2022-12-04T06:44:01.588Z,82.63
2022-12-04T06:46:35.040Z,82.30
2022-12-04T06:49:07.113Z,82.37
2022-12-04T06:51:40.858Z,82.56
2022-12-04T06:54:12.987Z,83.19
2022-12-04T06:56:45.020Z,83.21
2022-12-04T06:59:17.297Z,83.39
2022-12-04T07:01:49.419Z,82.91
2022-12-04T07:04:21.551Z,83.53
2022-12-04T07:06:54.677Z,84.04
2022-12-04T07:09:26.629Z,84.01
2022-12-04T07:11:58.636Z,83.62
2022-12-04T07:14:30.682Z,83.74
2022-12-04T07:17:02.756Z,83.17
2022-12-04T07:19:34.790Z,83.21
2022-12-04T07:22:08.990Z,83.55
2022-12-04T07:24:40.942Z,83.36
2022-12-04T07:27:12.917Z,83.00
2022-12-04T07:29:44.823Z,83.39
2022-12-04T07:32:16.918Z,82.97
2022-12-04T07:34:48.930Z,83.15
2022-12-04T07:37:20.866Z,83.30
2022-12-04T07:39:53.291Z,82.93
2022-12-04T07:42:25.430Z,82.73
2022-12-04T07:44:57.420Z,83.47
2022-12-04T07:47:29.390Z,83.19
2022-12-04T07:50:01.440Z,82.84
2022-12-04T07:52:39.831Z,83.29
2022-12-04T07:55:11.778Z,83.70
2022-12-04T07:57:43.737Z,83.21
2022-12-04T08:00:16.415Z,83.22
2022-12-04T08:02:49.963Z,82.76
2022-12-04T08:05:22.050Z,82.76
2022-12-04T08:07:54.484Z,81.97
2022-12-04T08:10:26.466Z,81.87
2022-12-04T08:12:58.395Z,82.24
2022-12-04T08:15:30.320Z,81.99
2022-12-04T08:18:02.298Z,82.27
2022-12-04T08:20:34.244Z,81.96
2022-12-04T08:23:06.205Z,82.59
2022-12-04T08:25:41.737Z,82.24
2022-12-04T08:28:13.810Z,82.00
2022-12-04T08:30:45.790Z,82.84
2022-12-04T08:33:17.957Z,82.37
2022-12-04T08:35:49.914Z,81.93
2022-12-04T08:38:21.873Z,81.48
2022-12-04T08:40:53.839Z,81.72
2022-12-04T08:43:25.802Z,81.32
2022-12-04T08:46:05.008Z,82.36
2022-12-04T08:48:37.650Z,81.84
2022-12-04T08:51:17.125Z,82.17
2022-12-04T08:53:58.740Z,82.38
2022-12-04T08:56:33.475Z,81.71
2022-12-04T08:59:06.578Z,81.83
2022-12-04T09:01:39.463Z,81.09
2022-12-04T09:04:11.583Z,81.27
2022-12-04T09:06:43.633Z,80.98
2022-12-04T09:09:16.857Z,80.92
2022-12-04T09:11:48.927Z,81.43
2022-12-04T09:14:25.978Z,80.78
2022-12-04T09:16:58.126Z,80.96
2022-12-04T09:19:31.560Z,80.57
2022-12-04T09:22:03.873Z,81.14
2022-12-04T09:24:35.805Z,80.22
2022-12-04T09:27:14.285Z,80.62
2022-12-04T09:29:46.924Z,81.12
2022-12-04T09:32:19.593Z,80.39
2022-12-04T09:34:52.977Z,80.23
2022-12-04T09:37:25.068Z,79.95
2022-12-04T09:39:57.199Z,79.65
2022-12-04T09:42:43.779Z,80.40
2022-12-04T09:45:22.964Z,80.34
2022-12-04T09:47:59.384Z,80.50
2022-12-04T09:50:44.419Z,79.92
2022-12-04T09:53:47.558Z,79.37
2022-12-04T09:56:21.646Z,80.19
2022-12-04T09:59:03.389Z,80.51
2022-12-04T10:02:37.770Z,80.29
2022-12-04T10:05:47.257Z,79.60
2022-12-04T10:08:39.972Z,80.16
2022-12-04T10:12:23.253Z,80.77
2022-12-04T10:15:28.526Z,81.09
2022-12-04T10:18:29.318Z,81.01
2022-12-04T10:21:45.221Z,80.61
2022-12-04T10:24:41.079Z,81.13
2022-12-04T10:27:48.132Z,81.52
2022-12-04T10:30:26.850Z,81.01
2022-12-04T10:33:11.771Z,81.58
2022-12-04T10:35:46.549Z,81.98
2022-12-04T10:38:49.110Z,82.01
2022-12-04T10:41:44.397Z,82.08
2022-12-04T10:44:18.831Z,82.02
2022-12-04T10:46:57.833Z,81.07
2022-12-04T10:49:33.475Z,81.54
2022-12-04T10:52:11.121Z,81.19
2022-12-04T10:54:55.529Z,80.89
2022-12-04T10:57:47.291Z,81.04
2022-12-04T11:00:34.458Z,81.22
2022-12-04T11:03:23.239Z,81.30
2022-12-04T11:06:01.370Z,81.35
2022-12-04T11:08:49.650Z,81.63
2022-12-04T11:11:30.181Z,80.97
2022-12-04T11:14:18.396Z,81.32
2022-12-04T11:17:06.297Z,81.10
2022-12-04T11:19:38.226Z,81.87
2022-12-04T11:22:18.250Z,81.21
2022-12-04T11:24:54.539Z,82.08
2022-12-04T11:27:32.877Z,81.38
2022-12-04T11:30:13.923Z,81.62
2022-12-04T11:32:47.120Z,81.90
2022-12-04T11:35:25.290Z,82.59
2022-12-04T11:38:05.018Z,82.57
2022-12-04T11:40:37.440Z,82.21
2022-12-04T11:43:17.882Z,82.81
2022-12-04T11:45:59.723Z,83.30
2022-12-04T11:48:42.171Z,83.38
2022-12-04T11:51:53.759Z,82.86
2022-12-04T11:55:12.538Z,82.11
2022-12-04T11:58:29.575Z,83.20
2022-12-04T12:01:16.314Z,82.29
2022-12-04T12:04:32.796Z,82.58
2022-12-04T12:07:20.192Z,82.24
2022-12-04T12:10:19.708Z,81.87
2022-12-04T12:13:09.680Z,81.93
2022-12-04T12:16:23.625Z,82.34
2022-12-04T12:19:59.008Z,81.86
2022-12-04T12:23:11.853Z,81.70
2022-12-04T12:26:10.633Z,82.23
2022-12-04T12:29:14.079Z,82.17
2022-12-04T12:32:20.073Z,81.29
2022-12-04T12:34:52.577Z,81.35
2022-12-04T12:37:47.867Z,81.12
2022-12-04T12:40:35.122Z,81.44
2022-12-04T12:43:32.557Z,81.69
2022-12-04T12:46:30.958Z,81.46
2022-12-04T12:49:17.776Z,81.40
2022-12-04T12:52:11.219Z,81.49
2022-12-04T12:54:57.334Z,81.11
2022-12-04T12:57:42.548Z,80.13
2022-12-04T13:00:21.768Z,80.47
2022-12-04T13:03:18.368Z,80.08
2022-12-04T13:05:55.933Z,81.35
2022-12-04T13:08:47.853Z,81.50
2022-12-04T13:11:25.853Z,81.53
2022-12-04T13:14:05.205Z,81.63
2022-12-04T13:16:51.355Z,82.07
2022-12-04T13:19:26.757Z,82.20
2022-12-04T13:22:52.708Z,82.39
2022-12-04T13:25:46.784Z,82.87
2022-12-04T13:28:41.463Z,82.61
2022-12-04T13:31:31.329Z,83.20
2022-12-04T13:34:44.648Z,83.33
2022-12-04T13:38:07.828Z,83.67
2022-12-04T13:40:58.432Z,84.29
2022-12-04T13:43:42.542Z,84.37
2022-12-04T13:46:39.764Z,84.00
2022-12-04T13:49:17.819Z,84.69
2022-12-04T13:51:50.187Z,84.96
2022-12-04T13:54:28.756Z,85.57
2022-12-04T13:57:15.946Z,85.40
2022-12-04T13:59:49.577Z,85.37
2022-12-04T14:02:35.472Z,85.60
2022-12-04T14:05:11.589Z,85.79
2022-12-04T14:08:07.816Z,86.30
2022-12-04T14:10:40.639Z,86.67
2022-12-04T14:13:24.105Z,86.67
2022-12-04T14:16:34.047Z,86.90
2022-12-04T14:19:07.584Z,86.30
2022-12-04T14:21:45.973Z,86.42
2022-12-04T14:24:35.244Z,86.41
2022-12-04T14:27:42.857Z,86.30
2022-12-04T14:30:38.306Z,86.29
2022-12-04T14:33:22.709Z,86.20
2022-12-04T14:36:29.000Z,86.30
2022-12-04T14:39:41.765Z,86.52
2022-12-04T14:42:29.652Z,86.38
2022-12-04T14:45:05.668Z,86.25
2022-12-04T14:47:58.078Z,85.93
2022-12-04T14:50:53.400Z,86.75
2022-12-04T14:54:21.248Z,86.72
2022-12-04T14:57:12.262Z,86.79
2022-12-04T14:59:53.575Z,86.33
2022-12-04T15:02:35.330Z,85.88
2022-12-04T15:05:23.040Z,86.02
2022-12-04T15:08:04.490Z,86.40
2022-12-04T15:10:56.991Z,85.99
2022-12-04T15:13:33.457Z,85.68
2022-12-04T15:16:11.212Z,85.98
2022-12-04T15:18:54.908Z,85.57
2022-12-04T15:21:42.432Z,85.58
2022-12-04T15:24:20.311Z,85.80
2022-12-04T15:26:53.641Z,86.26
2022-12-04T15:29:32.072Z,85.82
2022-12-04T15:32:12.025Z,85.88
2022-12-04T15:34:51.697Z,86.29
2022-12-04T15:37:29.023Z,85.94
2022-12-04T15:40:06.682Z,86.06
2022-12-04T15:42:38.697Z,85.63
2022-12-04T15:45:10.544Z,85.44
2022-12-04T15:47:42.479Z,85.85
2022-12-04T15:50:17.065Z,86.21
2022-12-04T15:53:07.450Z,86.37
2022-12-04T15:55:50.117Z,85.25
2022-12-04T15:58:31.052Z,85.92
2022-12-04T16:01:10.227Z,85.68
2022-12-04T16:03:42.350Z,85.72
2022-12-04T16:06:33.125Z,85.37
2022-12-04T16:09:26.084Z,85.51
2022-12-04T16:12:04.177Z,85.84
2022-12-04T16:14:36.170Z,86.17
2022-12-04T16:17:11.149Z,85.71
2022-12-04T16:19:43.254Z,85.58
2022-12-04T16:22:20.653Z,85.48
2022-12-04T16:24:54.022Z,85.82
2022-12-04T16:27:26.377Z,85.62
2022-12-04T16:29:58.444Z,86.14
2022-12-04T16:32:33.309Z,85.21
2022-12-04T16:35:06.570Z,85.65
2022-12-04T16:37:38.707Z,85.80
2022-12-04T16:40:15.004Z,86.06
2022-12-04T16:42:47.055Z,85.92
2022-12-04T16:45:32.838Z,85.44
2022-12-04T16:48:05.252Z,85.95
2022-12-04T16:50:37.300Z,85.69
2022-12-04T16:53:18.425Z,86.16
2022-12-04T16:55:52.617Z,86.32
2022-12-04T16:58:24.687Z,86.35
2022-12-04T17:00:57.497Z,86.24
2022-12-04T17:03:34.359Z,86.14
2022-12-04T17:06:06.502Z,86.19
2022-12-04T17:08:38.488Z,86.34
2022-12-04T17:11:15.836Z,86.24
2022-12-04T17:13:47.821Z,85.98
2022-12-04T17:16:20.232Z,86.71
2022-12-04T17:18:52.569Z,86.57
2022-12-04T17:21:24.692Z,86.41
2022-12-04T17:23:56.910Z,86.26
2022-12-04T17:26:29.249Z,86.21
2022-12-04T17:29:01.259Z,86.36
2022-12-04T17:31:33.393Z,86.24
2022-12-04T17:34:05.511Z,86.05
2022-12-04T17:36:37.503Z,86.22
2022-12-04T17:39:11.698Z,86.74
2022-12-04T17:41:43.708Z,87.08
2022-12-04T17:44:15.699Z,87.01
2022-12-04T17:46:47.769Z,86.50
2022-12-04T17:49:19.779Z,86.87
2022-12-04T17:51:51.761Z,86.70
2022-12-04T17:54:23.911Z,86.46
2022-12-04T17:56:57.929Z,86.53
2022-12-04T17:59:30.183Z,86.55
2022-12-04T18:02:02.265Z,86.64
2022-12-04T18:04:34.194Z,86.99
2022-12-04T18:07:06.546Z,87.21
2022-12-04T18:09:38.885Z,87.18
2022-12-04T18:12:12.502Z,87.18
2022-12-04T18:14:44.562Z,87.83
2022-12-04T18:17:17.718Z,87.50
2022-12-04T18:19:49.691Z,87.21
2022-12-04T18:22:21.718Z,87.70
2022-12-04T18:24:54.653Z,87.73
2022-12-04T18:27:26.695Z,87.75
2022-12-04T18:30:00.790Z,88.04
2022-12-04T18:32:32.767Z,87.96
2022-12-04T18:35:05.176Z,87.90
2022-12-04T18:37:37.474Z,88.31
2022-12-04T18:40:10.982Z,88.24
2022-12-04T18:42:42.918Z,88.13
2022-12-04T18:45:14.998Z,88.39
2022-12-04T18:47:48.848Z,88.22
2022-12-04T18:50:20.822Z,88.80
2022-12-04T18:52:58.804Z,88.90
2022-12-04T18:55:37.365Z,88.91
2022-12-04T18:58:09.339Z,89.17
2022-12-04T19:00:41.271Z,89.05
2022-12-04T19:03:13.373Z,89.07
2022-12-04T19:05:50.498Z,88.95
2022-12-04T19:08:22.482Z,89.16
2022-12-04T19:10:54.466Z,89.18
2022-12-04T19:13:26.571Z,89.18
2022-12-04T19:15:58.585Z,89.33
2022-12-04T19:18:31.568Z,89.15
2022-12-04T19:21:06.612Z,89.12
2022-12-04T19:23:38.766Z,89.41
2022-12-04T19:26:10.745Z,89.39
2022-12-04T19:28:42.782Z,90.03
2022-12-04T19:31:17.405Z,89.70
2022-12-04T19:33:49.794Z,90.12
2022-12-04T19:36:21.846Z,89.73
2022-12-04T19:38:54.511Z,90.09
2022-12-04T19:41:30.248Z,90.04
2022-12-04T19:44:14.664Z,90.08
2022-12-04T19:46:55.204Z,90.58
2022-12-04T19:49:27.602Z,90.70
2022-12-04T19:51:59.585Z,90.40
2022-12-04T19:54:31.692Z,90.26
2022-12-04T19:57:03.828Z,90.49
2022-12-04T19:59:39.536Z,90.89
2022-12-04T20:02:15.118Z,91.12
2022-12-04T20:04:47.235Z,91.35
2022-12-04T20:07:19.312Z,91.28
2022-12-04T20:09:52.662Z,90.88
2022-12-04T20:12:24.933Z,91.13
2022-12-04T20:14:57.533Z,91.40
2022-12-04T20:17:29.618Z,91.32
2022-12-04T20:20:01.935Z,91.01
2022-12-04T20:22:35.022Z,90.62
2022-12-04T20:25:07.553Z,91.11
2022-12-04T20:27:39.510Z,90.93
2022-12-04T20:30:12.007Z,91.03
2022-12-04T20:32:43.986Z,91.04
2022-12-04T20:35:16.210Z,90.74
2022-12-04T20:37:48.174Z,90.43
2022-12-04T20:40:20.208Z,90.50
2022-12-04T20:42:52.474Z,90.47
2022-12-04T20:45:24.568Z,90.73
2022-12-04T20:47:56.581Z,90.80
2022-12-04T20:50:28.580Z,90.69
2022-12-04T20:53:00.596Z,90.77
2022-12-04T20:55:32.603Z,90.81
2022-12-04T20:58:04.578Z,90.90
2022-12-04T21:00:36.616Z,90.73
2022-12-04T21:03:08.646Z,90.68
2022-12-04T21:05:40.910Z,90.55
2022-12-04T21:08:12.901Z,90.81
2022-12-04T21:10:46.488Z,90.71
2022-12-04T21:13:37.129Z,90.28
2022-12-04T21:16:09.586Z,90.39
2022-12-04T21:18:44.443Z,90.48
2022-12-04T21:21:17.481Z,90.04
2022-12-04T21:23:49.441Z,90.29
2022-12-04T21:26:22.269Z,90.10
2022-12-04T21:28:54.182Z,89.97
2022-12-04T21:31:29.066Z,89.93
2022-12-04T21:34:02.938Z,90.24
2022-12-04T21:36:35.217Z,90.50
2022-12-04T21:39:08.637Z,90.43
2022-12-04T21:41:59.043Z,90.43
2022-12-04T21:44:30.896Z,90.34
2022-12-04T21:47:02.974Z,90.68
2022-12-04T21:49:34.955Z,90.80
2022-12-04T21:52:06.961Z,90.63
2022-12-04T21:54:39.016Z,90.75
2022-12-04T21:57:11.136Z,91.04
2022-12-04T21:59:43.283Z,90.75
2022-12-04T22:02:15.724Z,90.92
2022-12-04T22:04:47.927Z,90.86
2022-12-04T22:07:19.899Z,91.10
2022-12-04T22:09:51.938Z,90.94
2022-12-04T22:12:48.650Z,90.76
2022-12-04T22:15:16.019Z,90.87
2022-12-04T22:17:48.000Z,90.56
2022-12-04T22:20:20.070Z,90.44
2022-12-04T22:22:52.160Z,90.51
2022-12-04T22:25:24.138Z,90.34
2022-12-04T22:27:57.575Z,90.48
2022-12-04T22:30:29.764Z,90.68
2022-12-04T22:33:01.805Z,90.15
2022-12-04T22:35:34.441Z,89.86
2022-12-04T22:38:06.456Z,90.40
2022-12-04T22:40:38.814Z,90.49
2022-12-04T22:43:10.831Z,90.56
2022-12-04T22:45:43.035Z,90.37
2022-12-04T22:48:14.979Z,90.27
2022-12-04T22:51:15.157Z,90.56
2022-12-04T22:53:50.813Z,90.50
2022-12-04T22:56:27.329Z,90.09
2022-12-04T22:59:00.709Z,90.35
2022-12-04T23:01:34.355Z,90.20
2022-12-04T23:04:06.420Z,90.38
2022-12-04T23:06:38.503Z,90.51
2022-12-04T23:09:16.926Z,90.45
2022-12-04T23:11:53.786Z,90.49
2022-12-04T23:14:27.200Z,90.79
2022-12-04T23:16:59.533Z,91.17
2022-12-04T23:19:31.697Z,90.97
2022-12-04T23:22:03.695Z,91.28
2022-12-04T23:24:38.134Z,90.66
2022-12-04T23:27:10.144Z,90.33
2022-12-04T23:29:53.178Z,90.76
2022-12-04T23:32:25.613Z,91.55
2022-12-04T23:34:57.675Z,91.34
2022-12-04T23:37:29.736Z,91.32
2022-12-04T23:40:01.758Z,90.98
2022-12-04T23:42:34.087Z,91.58
2022-12-04T23:45:07.993Z,91.63
2022-12-04T23:47:39.923Z,91.70
2022-12-04T23:50:11.896Z,92.31
2022-12-04T23:52:43.869Z,93.02
2022-12-04T23:55:16.198Z,93.01
2022-12-04T23:57:48.253Z,92.57
